Kenilworth, NJ (07033)

4:24 PM EST on December 28, 2014 (GMT -0500)
Kenilworth, N.J. | Change Station
CLOSE
Current Station
Personal Weather Station
Location: Kenilworth, NJ
Elevation: 92 ft
Nearby Weather Stations

Elev 92 ft 40.67 °N, 74.30 °W | Updated 12 minutes ago

Mostly Cloudy
Mostly Cloudy
52.7 °F
Feels Like 52.7 °F
N
5.0
Wind Variable Wind from North
Gusts 6.0 mph

Today
High -- | Low -- °F
--% Chance of Precip.
Yesterday
High -- | Low -- °F
Precip. -- in
7:20 AM 4:37 PM
Waxing Crescent, 51% visible
Pressure 29.95 in
Visibility 10.0 miles
Clouds Scattered Clouds 4300 ft
Scattered Clouds 12000 ft
Dew Point 45 °F
Humidity 74%
Rainfall 0.09 in
Snow Depth Not available.
UV 0.0 out of 12
Pollen .10 out of 12
Air Quality Not available.
Flu Activity Not available.
METAR KLDJ 282115Z AUTO 30005KT 10SM SCT043 SCT120 14/08 A2995 RMK AO2 T01360078

More Conditions Fewer Conditions

Pressure 29.95 in
Visibility 10.0 miles
Clouds Scattered Clouds 4300 ft
Scattered Clouds 12000 ft
Dew Point 45 °F
Humidity 74%
Rainfall 0.09 in
Snow Depth Not available.
UV 0.0 out of 12
Pollen .10 out of 12
Air Quality Not available.
Flu Activity Not available.
METAR KLDJ 282115Z AUTO 30005KT 10SM SCT043 SCT120 14/08 A2995 RMK AO2 T01360078

More Conditions Fewer Conditions

10-Day Weather Forecast

Almanac

Astronomy

Dec. 28, 2014 Rise Set
Actual Time
Civil Twilight
Nautical Twilight
Astronomical Twilight
Moon
Length of Visible Light
Length of Day
Tomorrow will be .
, % of the Moon is Illuminated

Today's Extremes

State Highs State Lows

Community

WunderPhotos

Upload Photos

1,781,431 photos uploaded!

WunderBlogs® & News

Nearby

Air Quality

  Air Quality AQ Index Pollutant
Not available.

Snow Depth

Station Depth Elevation

Earthquake Activity

City Distance Mag. Time & Date
Minimum magnitude displayed is 2.5.

Coastal Water Temperatures

Place Temperature

Nearby Weather Stations